createdAt,value
2022-12-25T00:00:51.993Z,101077.72
2022-12-25T00:03:18.497Z,101080.31
2022-12-25T00:05:45.088Z,101077.03
2022-12-25T00:08:11.497Z,101077.28
2022-12-25T00:10:44.687Z,101080.00
2022-12-25T00:13:11.794Z,101065.13
2022-12-25T00:15:39.712Z,101066.91
2022-12-25T00:18:06.125Z,101069.63
2022-12-25T00:20:32.535Z,101067.72
2022-12-25T00:22:58.958Z,101062.00
2022-12-25T00:25:25.366Z,101067.28
2022-12-25T00:27:51.892Z,101071.53
2022-12-25T00:30:18.278Z,101069.63
2022-12-25T00:32:44.713Z,101062.00
2022-12-25T00:35:11.113Z,101069.88
2022-12-25T00:37:37.491Z,101065.66
2022-12-25T00:40:04.131Z,101061.41
2022-12-25T00:42:30.515Z,101064.41
2022-12-25T00:44:56.912Z,101068.53
2022-12-25T00:47:23.444Z,101066.59
2022-12-25T00:49:49.889Z,101068.75
2022-12-25T00:52:16.357Z,101066.44
2022-12-25T00:54:42.699Z,101070.16
2022-12-25T00:57:09.422Z,101072.06
2022-12-25T00:59:35.816Z,101071.22
2022-12-25T01:02:22.370Z,101070.41
2022-12-25T01:04:49.731Z,101065.22
2022-12-25T01:07:16.946Z,101072.75
2022-12-25T01:10:03.213Z,101066.59
2022-12-25T01:12:30.243Z,101068.53
2022-12-25T01:14:56.648Z,101065.78
2022-12-25T01:17:23.064Z,101061.56
2022-12-25T01:19:49.514Z,101067.56
2022-12-25T01:22:16.414Z,101071.78
2022-12-25T01:24:44.119Z,101067.56
2022-12-25T01:27:11.196Z,101066.03
2022-12-25T01:29:37.964Z,101070.28
2022-12-25T01:32:05.011Z,101059.09
2022-12-25T01:34:31.394Z,101064.28
2022-12-25T01:36:57.783Z,101062.53
2022-12-25T01:39:24.168Z,101059.09
2022-12-25T01:41:50.540Z,101059.78
2022-12-25T01:44:19.996Z,101052.81
2022-12-25T01:46:46.361Z,101057.19
2022-12-25T01:49:24.664Z,101047.50
2022-12-25T01:51:54.031Z,101051.06
2022-12-25T01:54:23.661Z,101052.00
2022-12-25T01:56:52.269Z,101064.97
2022-12-25T01:59:19.728Z,101057.19
2022-12-25T02:01:46.691Z,101063.88
2022-12-25T02:04:19.050Z,101065.66
2022-12-25T02:06:45.832Z,101070.84
2022-12-25T02:09:12.199Z,101074.97
2022-12-25T02:11:56.992Z,101076.72
2022-12-25T02:14:24.408Z,101083.66
2022-12-25T02:16:56.956Z,101081.91
2022-12-25T02:19:25.077Z,101074.97
2022-12-25T02:22:08.400Z,101074.69
2022-12-25T02:24:52.341Z,101075.50
2022-12-25T02:27:18.724Z,101078.91
2022-12-25T02:29:53.375Z,101081.41
2022-12-25T02:32:29.160Z,101084.00
2022-12-25T02:35:01.604Z,101090.09
2022-12-25T02:37:32.602Z,101086.59
2022-12-25T02:40:09.449Z,101081.94
2022-12-25T02:43:06.511Z,101080.31
2022-12-25T02:46:07.486Z,101085.34
2022-12-25T02:48:54.778Z,101077.56
2022-12-25T02:51:42.031Z,101085.22
2022-12-25T02:54:30.419Z,101074.84
2022-12-25T02:57:16.605Z,101073.19
2022-12-25T03:00:03.576Z,101080.03
2022-12-25T03:02:49.447Z,101067.06
2022-12-25T03:05:37.783Z,101063.66
2022-12-25T03:08:06.974Z,101064.34
2022-12-25T03:10:53.519Z,101075.53
2022-12-25T03:13:21.622Z,101072.13
2022-12-25T03:16:07.528Z,101060.81
2022-12-25T03:18:34.515Z,101064.34
2022-12-25T03:21:20.135Z,101059.03
2022-12-25T03:24:22.472Z,101054.78
2022-12-25T03:26:54.965Z,101059.97
2022-12-25T03:29:51.663Z,101051.38
2022-12-25T03:32:26.920Z,101050.44
2022-12-25T03:35:16.959Z,101045.38
2022-12-25T03:37:43.329Z,101033.91
2022-12-25T03:40:52.407Z,101035.53
2022-12-25T03:43:49.509Z,101017.53
2022-12-25T03:46:43.585Z,101022.72
2022-12-25T03:49:43.721Z,101021.75
2022-12-25T03:52:30.562Z,101001.00
2022-12-25T03:55:18.383Z,100996.09
2022-12-25T03:58:03.388Z,100999.50
2022-12-25T04:00:48.374Z,100991.59
2022-12-25T04:03:33.438Z,100989.81
2022-12-25T04:06:18.663Z,100990.38
2022-12-25T04:09:03.725Z,101005.38
2022-12-25T04:11:48.504Z,101015.75
2022-12-25T04:14:33.407Z,101020.94
2022-12-25T04:17:18.312Z,101015.91
2022-12-25T04:20:03.186Z,101014.78
2022-12-25T04:22:48.080Z,101014.78
2022-12-25T04:25:32.874Z,101005.22
2022-12-25T04:28:20.878Z,101009.59
2022-12-25T04:31:05.980Z,100996.53
2022-12-25T04:33:51.076Z,101002.78
2022-12-25T04:36:17.439Z,101012.34
2022-12-25T04:38:43.888Z,101011.38
2022-12-25T04:41:11.659Z,101001.00
2022-12-25T04:43:38.236Z,100998.41
2022-12-25T04:46:05.604Z,100988.84
2022-12-25T04:48:33.802Z,100986.25
2022-12-25T04:51:29.622Z,100995.00
2022-12-25T04:53:56.168Z,101002.94
2022-12-25T04:56:22.790Z,101006.34
2022-12-25T04:58:49.182Z,101002.09
2022-12-25T05:01:15.975Z,100996.91
2022-12-25T05:03:42.511Z,101003.75
2022-12-25T05:06:09.254Z,101000.34
2022-12-25T05:08:36.301Z,100994.19
2022-12-25T05:11:10.100Z,100999.38
2022-12-25T05:13:36.910Z,100995.16
2022-12-25T05:16:11.850Z,100989.13
2022-12-25T05:18:38.348Z,100988.31
2022-12-25T05:21:06.283Z,100983.94
2022-12-25T05:23:32.734Z,100980.41
2022-12-25T05:25:59.605Z,100971.66
2022-12-25T05:28:25.998Z,100968.25
2022-12-25T05:30:55.793Z,100961.28
2022-12-25T05:33:22.202Z,100956.91
2022-12-25T05:35:48.677Z,100950.09
2022-12-25T05:38:15.061Z,100943.94
2022-12-25T05:40:41.453Z,100950.78
2022-12-25T05:43:07.900Z,100944.91
2022-12-25T05:45:34.570Z,100945.06
2022-12-25T05:48:00.980Z,100943.41
2022-12-25T05:50:27.449Z,100955.69
2022-12-25T05:53:08.303Z,100965.22
2022-12-25T05:55:35.941Z,100965.22
2022-12-25T05:58:02.469Z,100965.22
2022-12-25T06:00:28.893Z,100969.59
2022-12-25T06:02:55.442Z,100952.56
2022-12-25T06:05:21.904Z,100942.28
2022-12-25T06:07:48.290Z,100931.91
2022-12-25T06:10:14.744Z,100924.84
2022-12-25T06:12:41.160Z,100926.72
2022-12-25T06:15:07.967Z,100935.34
2022-12-25T06:17:34.367Z,100942.19
2022-12-25T06:20:00.722Z,100927.00
2022-12-25T06:22:30.851Z,100934.13
2022-12-25T06:24:57.554Z,100922.94
2022-12-25T06:27:24.082Z,100917.75
2022-12-25T06:29:50.536Z,100905.59
2022-12-25T06:32:17.047Z,100909.72
2022-12-25T06:34:43.441Z,100902.31
2022-12-25T06:37:09.942Z,100896.75
2022-12-25T06:39:36.340Z,100895.63
2022-12-25T06:42:02.732Z,100891.69
2022-12-25T06:44:29.381Z,100885.94
2022-12-25T06:46:55.813Z,100884.03
2022-12-25T06:49:22.332Z,100874.31
2022-12-25T06:51:48.714Z,100883.78
2022-12-25T06:54:15.065Z,100889.78
2022-12-25T06:56:41.438Z,100891.41
2022-12-25T06:59:08.852Z,100875.69
2022-12-25T07:01:37.062Z,100869.44
2022-12-25T07:04:05.722Z,100861.66
2022-12-25T07:06:32.353Z,100855.38
2022-12-25T07:08:58.782Z,100856.19
2022-12-25T07:11:25.191Z,100857.56
2022-12-25T07:13:51.637Z,100857.66
2022-12-25T07:16:18.260Z,100844.44
2022-12-25T07:18:44.747Z,100835.84
2022-12-25T07:21:12.615Z,100823.13
2022-12-25T07:23:39.406Z,100825.16
2022-12-25T07:26:06.378Z,100823.94
2022-12-25T07:28:33.070Z,100829.53
2022-12-25T07:31:07.023Z,100832.41
2022-12-25T07:33:33.883Z,100834.44
2022-12-25T07:36:00.509Z,100834.59
2022-12-25T07:38:27.136Z,100816.00
2022-12-25T07:40:53.975Z,100808.63
2022-12-25T07:43:20.488Z,100798.66
2022-12-25T07:45:47.137Z,100787.22
2022-12-25T07:48:16.799Z,100794.28
2022-12-25T07:50:43.689Z,100795.25
2022-12-25T07:53:10.088Z,100810.16
2022-12-25T07:55:36.525Z,100816.81
2022-12-25T07:58:03.046Z,100822.56
2022-12-25T08:00:33.555Z,100823.69
2022-12-25T08:03:00.212Z,100829.25
2022-12-25T08:05:26.730Z,100814.06
2022-12-25T08:07:57.758Z,100815.84
2022-12-25T08:10:24.663Z,100807.91
2022-12-25T08:12:51.958Z,100801.19
2022-12-25T08:15:18.324Z,100803.09
2022-12-25T08:17:44.719Z,100816.66
2022-12-25T08:20:11.244Z,100815.69
2022-12-25T08:22:37.671Z,100820.44
2022-12-25T08:25:04.256Z,100816.66
2022-12-25T08:27:30.643Z,100803.53
2022-12-25T08:29:57.019Z,100773.28
2022-12-25T08:32:23.385Z,100755.34
2022-12-25T08:34:49.802Z,100757.44
2022-12-25T08:37:16.189Z,100772.84
2022-12-25T08:39:42.775Z,100816.75
2022-12-25T08:42:09.134Z,100826.81
2022-12-25T08:44:36.207Z,100847.69
2022-12-25T08:47:02.590Z,100867.94
2022-12-25T08:49:29.128Z,100874.38
2022-12-25T08:51:55.761Z,100861.63
2022-12-25T08:54:22.135Z,100846.22
2022-12-25T08:56:48.530Z,100828.59
2022-12-25T08:59:14.928Z,100830.97
2022-12-25T09:01:41.464Z,100827.06
2022-12-25T09:04:07.945Z,100807.66
2022-12-25T09:06:34.375Z,100798.25
2022-12-25T09:09:00.756Z,100792.56
2022-12-25T09:11:27.140Z,100794.53
2022-12-25T09:13:53.526Z,100806.78
2022-12-25T09:16:21.770Z,100820.50
2022-12-25T09:18:48.546Z,100823.25
2022-12-25T09:21:16.299Z,100844.28
2022-12-25T09:23:43.142Z,100844.84
2022-12-25T09:26:11.781Z,100847.16
2022-12-25T09:28:38.161Z,100855.50
2022-12-25T09:31:04.940Z,100860.13
2022-12-25T09:33:31.380Z,100858.22
2022-12-25T09:36:01.929Z,100849.38
2022-12-25T09:38:28.464Z,100856.72
2022-12-25T09:40:59.476Z,100861.50
2022-12-25T09:43:26.965Z,100869.72
2022-12-25T09:45:53.424Z,100868.47
2022-12-25T09:48:20.133Z,100880.53
2022-12-25T09:50:49.607Z,100875.59
2022-12-25T09:53:19.362Z,100863.16
2022-12-25T09:55:49.575Z,100875.03
2022-12-25T09:58:16.084Z,100864.38
2022-12-25T10:00:45.811Z,100861.47
2022-12-25T10:03:18.385Z,100845.91
2022-12-25T10:05:44.745Z,100849.38
2022-12-25T10:08:11.173Z,100850.28
2022-12-25T10:10:48.979Z,100837.44
2022-12-25T10:13:21.701Z,100841.00
2022-12-25T10:15:48.101Z,100828.78
2022-12-25T10:18:29.821Z,100819.28
2022-12-25T10:20:57.671Z,100817.91
2022-12-25T10:23:28.146Z,100804.44
2022-12-25T10:25:55.282Z,100793.59
2022-12-25T10:28:38.511Z,100800.78
2022-12-25T10:31:17.502Z,100799.81
2022-12-25T10:33:44.016Z,100795.69
2022-12-25T10:36:10.470Z,100797.53
2022-12-25T10:38:36.827Z,100776.97
2022-12-25T10:41:03.184Z,100769.19
2022-12-25T10:43:32.675Z,100777.75
2022-12-25T10:45:59.257Z,100779.66
2022-12-25T10:48:27.784Z,100778.84
2022-12-25T10:50:54.915Z,100774.03
2022-12-25T10:53:28.462Z,100769.34
2022-12-25T10:56:02.349Z,100769.66
2022-12-25T10:58:29.304Z,100759.19
2022-12-25T11:01:14.366Z,100757.78
2022-12-25T11:03:43.991Z,100760.22
2022-12-25T11:06:29.067Z,100740.31
2022-12-25T11:08:57.551Z,100735.06
2022-12-25T11:11:24.158Z,100722.44
2022-12-25T11:13:52.461Z,100727.34
2022-12-25T11:16:29.891Z,100716.13
2022-12-25T11:18:56.740Z,100714.88
2022-12-25T11:21:23.154Z,100703.06
2022-12-25T11:23:50.787Z,100686.06
2022-12-25T11:26:18.084Z,100663.13
2022-12-25T11:28:45.629Z,100652.81
2022-12-25T11:31:14.028Z,100640.25
2022-12-25T11:33:55.727Z,100637.44
2022-12-25T11:36:22.198Z,100624.56
2022-12-25T11:38:48.598Z,100612.28
2022-12-25T11:41:20.332Z,100622.66
2022-12-25T11:43:54.173Z,100618.09
2022-12-25T11:46:52.109Z,100630.81
2022-12-25T11:49:19.614Z,100623.13
2022-12-25T11:51:47.960Z,100613.34
2022-12-25T11:54:25.481Z,100620.34
2022-12-25T11:56:52.392Z,100602.13
2022-12-25T11:59:32.103Z,100599.25
2022-12-25T12:01:58.553Z,100604.34
2022-12-25T12:04:35.195Z,100606.13
2022-12-25T12:07:13.233Z,100603.75
2022-12-25T12:09:45.772Z,100608.06
2022-12-25T12:12:46.627Z,100608.63
2022-12-25T12:15:33.969Z,100591.94
2022-12-25T12:18:15.515Z,100589.31
2022-12-25T12:20:41.909Z,100589.97
2022-12-25T12:23:13.324Z,100583.50
2022-12-25T12:25:40.961Z,100584.75
2022-12-25T12:28:12.802Z,100578.38
2022-12-25T12:30:39.438Z,100577.56
2022-12-25T12:33:07.107Z,100583.34
2022-12-25T12:35:35.078Z,100559.38
2022-12-25T12:38:06.767Z,100569.06
2022-12-25T12:40:36.475Z,100577.22
2022-12-25T12:43:03.617Z,100559.66
2022-12-25T12:45:32.842Z,100555.00
2022-12-25T12:47:59.313Z,100565.47
2022-12-25T12:50:36.543Z,100558.97
2022-12-25T12:53:18.125Z,100543.72
2022-12-25T12:55:44.568Z,100546.75
2022-12-25T12:58:23.208Z,100543.91
2022-12-25T13:00:55.283Z,100537.53
2022-12-25T13:03:32.312Z,100556.06
2022-12-25T13:05:58.773Z,100551.28
2022-12-25T13:08:43.280Z,100536.91
2022-12-25T13:11:12.836Z,100530.28
2022-12-25T13:13:40.885Z,100524.56
2022-12-25T13:16:14.365Z,100519.44
2022-12-25T13:18:41.837Z,100514.38
2022-12-25T13:21:13.349Z,100512.25
2022-12-25T13:23:39.836Z,100512.44
2022-12-25T13:26:11.985Z,100507.41
2022-12-25T13:28:38.373Z,100510.63
2022-12-25T13:31:13.893Z,100510.38
2022-12-25T13:33:44.421Z,100501.75
2022-12-25T13:36:12.596Z,100509.66
2022-12-25T13:38:43.693Z,100503.72
2022-12-25T13:41:28.887Z,100505.97
2022-12-25T13:43:57.906Z,100514.13
2022-12-25T13:46:27.775Z,100512.50
2022-12-25T13:48:59.185Z,100514.25
2022-12-25T13:51:26.326Z,100521.94
2022-12-25T13:54:02.961Z,100512.63
2022-12-25T13:56:29.333Z,100511.06
2022-12-25T13:58:55.751Z,100509.13
2022-12-25T14:01:22.352Z,100514.94
2022-12-25T14:03:49.039Z,100498.53
2022-12-25T14:06:20.751Z,100511.34
2022-12-25T14:08:47.832Z,100504.72
2022-12-25T14:11:20.666Z,100505.97
2022-12-25T14:13:48.464Z,100512.16
2022-12-25T14:16:19.298Z,100504.38
2022-12-25T14:18:53.031Z,100505.34
2022-12-25T14:21:28.603Z,100499.16
2022-12-25T14:23:55.168Z,100509.81
2022-12-25T14:26:29.301Z,100509.06
2022-12-25T14:29:01.762Z,100499.97
2022-12-25T14:31:28.917Z,100512.97
2022-12-25T14:33:55.318Z,100497.88
2022-12-25T14:36:21.899Z,100503.38
2022-12-25T14:38:58.470Z,100499.81
2022-12-25T14:41:37.912Z,100503.03
2022-12-25T14:44:23.469Z,100507.13
2022-12-25T14:46:49.849Z,100495.13
2022-12-25T14:49:34.364Z,100495.78
2022-12-25T14:52:15.665Z,100505.69
2022-12-25T14:54:53.023Z,100494.16
2022-12-25T14:57:25.950Z,100489.47
2022-12-25T14:59:56.698Z,100486.38
2022-12-25T15:02:23.322Z,100484.13
2022-12-25T15:04:49.853Z,100469.63
2022-12-25T15:07:28.093Z,100475.34
2022-12-25T15:10:18.465Z,100471.09
2022-12-25T15:12:40.856Z,100456.75
2022-12-25T15:15:07.417Z,100461.47
2022-12-25T15:17:35.975Z,100462.75
2022-12-25T15:20:03.994Z,100457.25
2022-12-25T15:22:47.716Z,100456.94
2022-12-25T15:25:16.826Z,100448.44
2022-12-25T15:27:43.295Z,100445.84
2022-12-25T15:30:11.071Z,100442.75
2022-12-25T15:32:37.829Z,100440.97
2022-12-25T15:35:04.425Z,100447.91
2022-12-25T15:37:30.831Z,100443.22
2022-12-25T15:39:57.566Z,100440.59
2022-12-25T15:42:25.231Z,100437.66
2022-12-25T15:44:52.077Z,100442.81
2022-12-25T15:47:20.187Z,100436.28
2022-12-25T15:49:46.712Z,100435.59
2022-12-25T15:52:14.763Z,100425.41
2022-12-25T15:54:41.182Z,100436.78
2022-12-25T15:57:13.289Z,100438.41
2022-12-25T15:59:39.710Z,100429.94
2022-12-25T16:02:13.197Z,100427.84
2022-12-25T16:04:42.356Z,100426.69
2022-12-25T16:07:15.856Z,100431.72
2022-12-25T16:09:42.270Z,100431.25
2022-12-25T16:12:08.657Z,100419.81
2022-12-25T16:14:35.164Z,100423.91
2022-12-25T16:17:01.599Z,100419.22
2022-12-25T16:19:28.000Z,100417.91
2022-12-25T16:21:54.453Z,100422.31
2022-12-25T16:24:21.795Z,100422.13
2022-12-25T16:26:48.308Z,100418.41
2022-12-25T16:29:14.794Z,100427.78
2022-12-25T16:31:41.476Z,100426.03
2022-12-25T16:34:08.723Z,100430.41
2022-12-25T16:36:35.458Z,100417.44
2022-12-25T16:39:02.268Z,100423.56
2022-12-25T16:41:28.674Z,100427.34
2022-12-25T16:43:55.084Z,100431.88
2022-12-25T16:46:22.128Z,100425.22
2022-12-25T16:48:48.629Z,100423.28
2022-12-25T16:51:16.598Z,100426.34
2022-12-25T16:53:43.435Z,100423.63
2022-12-25T16:56:16.783Z,100424.75
2022-12-25T16:58:46.879Z,100425.06
2022-12-25T17:01:17.900Z,100432.75
2022-12-25T17:03:44.934Z,100428.81
2022-12-25T17:06:15.667Z,100430.59
2022-12-25T17:08:42.548Z,100426.84
2022-12-25T17:11:09.177Z,100431.91
2022-12-25T17:13:35.821Z,100435.00
2022-12-25T17:16:11.403Z,100440.84
2022-12-25T17:18:37.812Z,100443.44
2022-12-25T17:21:04.230Z,100435.47
2022-12-25T17:23:30.606Z,100447.03
2022-12-25T17:26:00.092Z,100444.44
2022-12-25T17:28:26.520Z,100444.44
2022-12-25T17:30:53.287Z,100437.25
2022-12-25T17:33:19.690Z,100442.47
2022-12-25T17:35:46.077Z,100447.16
2022-12-25T17:38:12.467Z,100453.19
2022-12-25T17:40:38.868Z,100456.78
2022-12-25T17:43:05.231Z,100453.22
2022-12-25T17:45:31.625Z,100443.78
2022-12-25T17:47:57.991Z,100444.38
2022-12-25T17:50:25.527Z,100442.00
2022-12-25T17:52:52.815Z,100440.53
2022-12-25T17:55:19.196Z,100437.59
2022-12-25T17:57:45.559Z,100436.75
2022-12-25T18:00:13.107Z,100444.56
2022-12-25T18:02:40.078Z,100444.25
2022-12-25T18:05:06.914Z,100443.44
2022-12-25T18:07:33.299Z,100434.81
2022-12-25T18:09:59.658Z,100436.97
2022-12-25T18:12:26.037Z,100445.72
2022-12-25T18:14:52.478Z,100436.78
2022-12-25T18:17:18.853Z,100442.47
2022-12-25T18:19:45.267Z,100446.69
2022-12-25T18:22:11.617Z,100440.84
2022-12-25T18:24:38.120Z,100429.47
2022-12-25T18:27:04.493Z,100430.13
2022-12-25T18:29:30.921Z,100441.31
2022-12-25T18:31:57.535Z,100450.09
2022-12-25T18:34:23.949Z,100435.31
2022-12-25T18:36:50.309Z,100432.69
2022-12-25T18:39:16.836Z,100433.69
2022-12-25T18:42:01.985Z,100431.75
2022-12-25T18:44:29.236Z,100427.38
2022-12-25T18:46:55.644Z,100435.81
2022-12-25T18:49:21.996Z,100427.03
2022-12-25T18:51:49.088Z,100438.09
2022-12-25T18:54:15.538Z,100435.97
2022-12-25T18:56:42.015Z,100433.84
2022-12-25T18:59:09.150Z,100440.84
2022-12-25T19:01:35.572Z,100442.31
2022-12-25T19:04:05.699Z,100444.25
2022-12-25T19:06:33.290Z,100447.03
2022-12-25T19:08:59.768Z,100444.72
2022-12-25T19:11:26.245Z,100450.59
2022-12-25T19:13:52.628Z,100448.63
2022-12-25T19:16:19.018Z,100441.81
2022-12-25T19:18:45.468Z,100453.69
2022-12-25T19:21:12.126Z,100445.88
2022-12-25T19:23:38.791Z,100453.50
2022-12-25T19:26:06.132Z,100453.69
2022-12-25T19:28:32.676Z,100456.13
2022-12-25T19:30:59.938Z,100460.53
2022-12-25T19:33:26.319Z,100465.56
2022-12-25T19:35:52.705Z,100464.94
2022-12-25T19:38:20.089Z,100480.38
2022-12-25T19:41:00.201Z,100482.47
2022-12-25T19:43:28.017Z,100479.41
2022-12-25T19:45:54.557Z,100488.66
2022-12-25T19:48:20.985Z,100485.41
2022-12-25T19:50:47.411Z,100474.06
2022-12-25T19:53:16.612Z,100472.22
2022-12-25T19:55:46.230Z,100466.25
2022-12-25T19:58:13.883Z,100459.72
2022-12-25T20:00:41.680Z,100469.81
2022-12-25T20:03:08.638Z,100457.81
2022-12-25T20:05:35.071Z,100456.66
2022-12-25T20:08:01.456Z,100462.84
2022-12-25T20:10:27.950Z,100459.75
2022-12-25T20:12:54.325Z,100461.22
2022-12-25T20:15:20.719Z,100472.09
2022-12-25T20:17:47.463Z,100468.72
2022-12-25T20:20:14.000Z,100452.91
2022-12-25T20:22:40.344Z,100472.59
2022-12-25T20:25:09.006Z,100469.03
2022-12-25T20:27:35.524Z,100457.00
2022-12-25T20:30:02.162Z,100462.19
2022-12-25T20:32:29.097Z,100447.38
2022-12-25T20:34:55.456Z,100459.72
2022-12-25T20:37:21.833Z,100457.13
2022-12-25T20:39:48.214Z,100470.97
2022-12-25T20:42:14.583Z,100478.28
2022-12-25T20:44:40.995Z,100470.00
2022-12-25T20:47:07.379Z,100473.56
2022-12-25T20:49:34.672Z,100461.22
2022-12-25T20:52:05.252Z,100456.31
2022-12-25T20:54:32.349Z,100457.47
2022-12-25T20:56:58.763Z,100457.31
2022-12-25T20:59:25.232Z,100456.81
2022-12-25T21:01:54.066Z,100445.09
2022-12-25T21:04:20.787Z,100460.25
2022-12-25T21:06:47.179Z,100462.38
2022-12-25T21:09:13.660Z,100471.75
2022-12-25T21:11:40.113Z,100462.50
2022-12-25T21:14:06.535Z,100464.97
2022-12-25T21:16:33.193Z,100466.25
2022-12-25T21:18:59.668Z,100456.16
2022-12-25T21:21:26.151Z,100460.72
2022-12-25T21:23:54.652Z,100456.81
2022-12-25T21:26:22.345Z,100455.38
2022-12-25T21:28:49.767Z,100476.03
2022-12-25T21:31:16.686Z,100461.69
2022-12-25T21:33:52.456Z,100471.94
2022-12-25T21:36:20.625Z,100468.72
2022-12-25T21:38:47.252Z,100475.06
2022-12-25T21:41:14.332Z,100485.13
2022-12-25T21:43:42.876Z,100494.53
2022-12-25T21:46:11.420Z,100514.41
2022-12-25T21:48:38.447Z,100521.75
2022-12-25T21:51:29.557Z,100531.00
2022-12-25T21:53:55.989Z,100533.47
2022-12-25T21:56:22.417Z,100532.50
2022-12-25T21:58:48.781Z,100521.59
2022-12-25T22:01:17.939Z,100524.69
2022-12-25T22:03:44.634Z,100525.31
2022-12-25T22:06:30.282Z,100533.94
2022-12-25T22:08:57.114Z,100540.31
2022-12-25T22:11:42.594Z,100542.09
2022-12-25T22:14:52.160Z,100548.25
2022-12-25T22:17:40.024Z,100538.19
2022-12-25T22:20:07.484Z,100527.94
2022-12-25T22:22:34.347Z,100542.06
2022-12-25T22:25:01.812Z,100543.53
2022-12-25T22:27:32.672Z,100545.19
2022-12-25T22:29:59.312Z,100546.50
2022-12-25T22:32:26.408Z,100550.56
2022-12-25T22:34:52.782Z,100548.09
2022-12-25T22:37:19.506Z,100556.06
2022-12-25T22:39:46.050Z,100554.44
2022-12-25T22:42:12.648Z,100560.13
2022-12-25T22:44:39.112Z,100558.84
2022-12-25T22:47:05.819Z,100564.38
2022-12-25T22:49:32.226Z,100557.06
2022-12-25T22:51:58.606Z,100549.28
2022-12-25T22:54:25.338Z,100557.06
2022-12-25T22:56:52.597Z,100562.28
2022-12-25T22:59:20.160Z,100562.59
2022-12-25T23:01:46.608Z,100574.63
2022-12-25T23:04:13.136Z,100560.00
2022-12-25T23:06:39.780Z,100569.94
2022-12-25T23:09:07.356Z,100563.25
2022-12-25T23:11:34.691Z,100563.41
2022-12-25T23:14:21.725Z,100569.44
2022-12-25T23:16:48.126Z,100570.13
2022-12-25T23:19:33.180Z,100574.97
2022-12-25T23:22:18.079Z,100572.03
2022-12-25T23:25:03.271Z,100569.94
2022-12-25T23:27:29.693Z,100571.41
2022-12-25T23:29:56.082Z,100557.72
2022-12-25T23:32:27.923Z,100561.94
2022-12-25T23:34:54.773Z,100562.28
2022-12-25T23:37:21.752Z,100566.34
2022-12-25T23:39:49.991Z,100569.13
2022-12-25T23:42:17.127Z,100571.72
2022-12-25T23:44:43.897Z,100559.34
2022-12-25T23:47:10.396Z,100560.31
2022-12-25T23:49:36.980Z,100553.16
2022-12-25T23:52:03.979Z,100561.44
2022-12-25T23:54:31.646Z,100563.75
2022-12-25T23:56:58.557Z,100556.41
2022-12-25T23:59:29.507Z,100556.75
